createdAt,value
2018-11-29T00:00:22.614Z,98347.73
2018-11-29T00:02:51.802Z,98351.94
2018-11-29T00:05:20.327Z,98354.78
2018-11-29T00:07:48.854Z,98352.13
2018-11-29T00:10:17.343Z,98350.62
2018-11-29T00:12:45.859Z,98354.05
2018-11-29T00:15:15.234Z,98356.88
2018-11-29T00:17:43.805Z,98354.70
2018-11-29T00:20:15.997Z,98354.48
2018-11-29T00:22:46.355Z,98356.24
2018-11-29T00:25:16.534Z,98362.57
2018-11-29T00:27:45.268Z,98361.56
2018-11-29T00:30:21.905Z,98345.83
2018-11-29T00:32:51.281Z,98348.30
2018-11-29T00:35:19.817Z,98346.32
2018-11-29T00:37:48.339Z,98336.73
2018-11-29T00:40:21.807Z,98329.13
2018-11-29T00:42:50.337Z,98322.73
2018-11-29T00:45:20.160Z,98307.38
2018-11-29T00:47:48.971Z,98293.60
2018-11-29T00:50:18.177Z,98292.37
2018-11-29T00:52:47.742Z,98298.98
2018-11-29T00:55:20.206Z,98293.52
2018-11-29T00:57:48.722Z,98296.89
2018-11-29T01:00:18.342Z,98315.67
2018-11-29T01:02:46.894Z,98307.36
2018-11-29T01:05:15.415Z,98306.43
2018-11-29T01:07:43.922Z,98316.51
2018-11-29T01:10:15.085Z,98320.44
2018-11-29T01:12:43.823Z,98319.38
2018-11-29T01:15:16.396Z,98317.95
2018-11-29T01:17:45.906Z,98323.09
2018-11-29T01:20:16.068Z,98325.78
2018-11-29T01:22:44.606Z,98321.36
2018-11-29T01:25:14.000Z,98324.70
2018-11-29T01:27:43.467Z,98328.44
2018-11-29T01:30:14.056Z,98330.04
2018-11-29T01:32:42.549Z,98332.86
2018-11-29T01:35:12.804Z,98328.84
2018-11-29T01:37:41.307Z,98328.12
2018-11-29T01:40:17.606Z,98337.15
2018-11-29T01:42:47.369Z,98331.00
2018-11-29T01:45:15.886Z,98334.33
2018-11-29T01:47:44.490Z,98336.31
2018-11-29T01:50:13.009Z,98340.15
2018-11-29T01:52:41.543Z,98333.78
2018-11-29T01:55:10.326Z,98332.61
2018-11-29T01:57:38.843Z,98326.23
2018-11-29T02:00:12.781Z,98312.94
2018-11-29T02:02:41.341Z,98306.52
2018-11-29T02:05:11.590Z,98299.42
2018-11-29T02:07:40.757Z,98298.00
2018-11-29T02:10:18.510Z,98292.87
2018-11-29T02:12:47.059Z,98291.11
2018-11-29T02:15:15.564Z,98283.93
2018-11-29T02:17:44.144Z,98281.80
2018-11-29T02:20:15.795Z,98272.97
2018-11-29T02:22:44.492Z,98266.94
2018-11-29T02:25:13.050Z,98265.00
2018-11-29T02:27:41.547Z,98255.97
2018-11-29T02:30:15.097Z,98258.81
2018-11-29T02:32:43.706Z,98259.47
2018-11-29T02:35:12.265Z,98239.85
2018-11-29T02:37:40.779Z,98243.93
2018-11-29T02:40:10.926Z,98245.72
2018-11-29T02:42:39.552Z,98236.75
2018-11-29T02:45:38.858Z,98238.34
2018-11-29T02:48:07.539Z,98245.63
2018-11-29T02:50:36.049Z,98251.30
2018-11-29T02:53:04.552Z,98256.98
2018-11-29T02:55:33.049Z,98256.63
2018-11-29T02:58:01.536Z,98262.59
2018-11-29T03:00:30.042Z,98283.93
2018-11-29T03:02:58.534Z,98254.09
2018-11-29T03:05:27.042Z,98266.33
2018-11-29T03:07:55.575Z,98268.80
2018-11-29T03:10:27.808Z,98264.75
2018-11-29T03:12:56.366Z,98260.33
2018-11-29T03:15:24.890Z,98250.09
2018-11-29T03:17:53.402Z,98256.64
2018-11-29T03:20:21.901Z,98259.27
2018-11-29T03:22:50.433Z,98252.73
2018-11-29T03:25:18.931Z,98245.80
2018-11-29T03:27:47.442Z,98247.34
2018-11-29T03:30:17.234Z,98248.37
2018-11-29T03:32:45.786Z,98244.45
2018-11-29T03:35:14.769Z,98242.33
2018-11-29T03:37:43.286Z,98244.42
2018-11-29T03:40:14.600Z,98234.52
2018-11-29T03:42:43.172Z,98234.86
2018-11-29T03:45:13.520Z,98237.82
2018-11-29T03:47:42.108Z,98233.78
2018-11-29T03:50:12.849Z,98223.00
2018-11-29T03:52:41.363Z,98215.39
2018-11-29T03:55:10.519Z,98204.31
2018-11-29T03:57:39.404Z,98210.83
2018-11-29T04:00:23.669Z,98201.31
2018-11-29T04:02:52.177Z,98201.63
2018-11-29T04:05:20.695Z,98187.67
2018-11-29T04:07:49.198Z,98192.05
2018-11-29T04:10:17.717Z,98186.43
2018-11-29T04:12:46.302Z,98184.52
2018-11-29T04:15:15.801Z,98197.02
2018-11-29T04:17:44.758Z,98201.47
2018-11-29T04:20:16.950Z,98201.87
2018-11-29T04:22:45.536Z,98199.73
2018-11-29T04:25:15.443Z,98189.14
2018-11-29T04:27:44.023Z,98182.78
2018-11-29T04:30:13.722Z,98179.78
2018-11-29T04:32:42.413Z,98184.54
2018-11-29T04:35:11.932Z,98174.45
2018-11-29T04:37:41.136Z,98173.53
2018-11-29T04:40:12.958Z,98170.13
2018-11-29T04:42:41.954Z,98177.36
2018-11-29T04:45:12.750Z,98176.16
2018-11-29T04:47:41.841Z,98177.61
2018-11-29T04:50:10.964Z,98175.84
2018-11-29T04:52:40.005Z,98177.44
2018-11-29T04:55:09.996Z,98176.94
2018-11-29T04:57:39.055Z,98181.89
2018-11-29T05:00:16.176Z,98182.94
2018-11-29T05:02:44.908Z,98175.68
2018-11-29T05:05:13.861Z,98182.02
2018-11-29T05:07:42.664Z,98184.17
2018-11-29T05:10:12.278Z,98186.30
2018-11-29T05:12:40.787Z,98184.17
2018-11-29T05:15:10.809Z,98186.11
2018-11-29T05:17:39.340Z,98185.09
2018-11-29T05:20:08.001Z,98189.32
2018-11-29T05:22:36.525Z,98184.94
2018-11-29T05:25:05.500Z,98178.20
2018-11-29T05:27:34.025Z,98185.98
2018-11-29T05:30:02.566Z,98182.22
2018-11-29T05:32:31.086Z,98182.94
2018-11-29T05:34:59.585Z,98182.22
2018-11-29T05:37:28.090Z,98178.58
2018-11-29T05:39:56.606Z,98175.55
2018-11-29T05:42:25.137Z,98173.73
2018-11-29T05:44:53.670Z,98179.70
2018-11-29T05:47:22.185Z,98171.86
2018-11-29T05:49:50.718Z,98178.87
2018-11-29T05:52:19.243Z,98177.11
2018-11-29T05:54:47.743Z,98185.72
2018-11-29T05:57:16.279Z,98176.19
2018-11-29T05:59:44.794Z,98170.88
2018-11-29T06:02:13.374Z,98171.44
2018-11-29T06:04:41.880Z,98177.20
2018-11-29T06:07:10.385Z,98177.73
2018-11-29T06:09:38.911Z,98170.84
2018-11-29T06:12:07.422Z,98169.05
2018-11-29T06:14:35.937Z,98177.50
2018-11-29T06:17:04.430Z,98172.01
2018-11-29T06:19:32.986Z,98177.13
2018-11-29T06:22:01.510Z,98181.88
2018-11-29T06:24:30.021Z,98187.53
2018-11-29T06:26:58.548Z,98177.80
2018-11-29T06:29:27.047Z,98177.99
2018-11-29T06:31:55.571Z,98175.89
2018-11-29T06:34:24.101Z,98172.20
2018-11-29T06:36:52.657Z,98163.36
2018-11-29T06:39:21.160Z,98163.52
2018-11-29T06:41:49.692Z,98167.93
2018-11-29T06:44:18.213Z,98162.44
2018-11-29T06:46:46.739Z,98175.82
2018-11-29T06:49:15.241Z,98179.48
2018-11-29T06:51:43.776Z,98171.70
2018-11-29T06:54:12.289Z,98173.61
2018-11-29T06:56:40.797Z,98177.46
2018-11-29T06:59:09.307Z,98174.32
2018-11-29T07:01:37.845Z,98171.85
2018-11-29T07:04:06.455Z,98170.95
2018-11-29T07:06:34.974Z,98176.41
2018-11-29T07:09:03.584Z,98181.16
2018-11-29T07:11:32.103Z,98187.33
2018-11-29T07:14:00.641Z,98185.71
2018-11-29T07:16:29.262Z,98176.70
2018-11-29T07:18:57.800Z,98177.56
2018-11-29T07:21:37.414Z,98170.34
2018-11-29T07:24:06.438Z,98172.70
2018-11-29T07:26:34.950Z,98169.38
2018-11-29T07:29:03.470Z,98174.33
2018-11-29T07:31:31.974Z,98170.44
2018-11-29T07:34:00.470Z,98178.02
2018-11-29T07:36:29.006Z,98179.11
2018-11-29T07:38:57.522Z,98179.45
2018-11-29T07:41:26.034Z,98188.64
2018-11-29T07:43:54.536Z,98182.09
2018-11-29T07:46:23.069Z,98184.38
2018-11-29T07:48:51.769Z,98184.56
2018-11-29T07:51:20.311Z,98190.59
2018-11-29T07:53:48.839Z,98192.91
2018-11-29T07:56:17.377Z,98186.73
2018-11-29T07:58:45.881Z,98173.16
2018-11-29T08:01:14.413Z,98169.47
2018-11-29T08:03:42.923Z,98165.28
2018-11-29T08:06:11.420Z,98159.96
2018-11-29T08:08:39.951Z,98163.11
2018-11-29T08:11:08.452Z,98160.27
2018-11-29T08:13:36.962Z,98151.81
2018-11-29T08:16:05.543Z,98153.91
2018-11-29T08:18:34.074Z,98166.44
2018-11-29T08:21:02.592Z,98160.27
2018-11-29T08:23:31.144Z,98152.48
2018-11-29T08:25:59.655Z,98153.01
2018-11-29T08:28:28.158Z,98157.05
2018-11-29T08:30:56.649Z,98150.02
2018-11-29T08:33:25.177Z,98156.56
2018-11-29T08:35:53.685Z,98146.88
2018-11-29T08:38:22.259Z,98098.72
2018-11-29T08:40:50.766Z,98151.44
2018-11-29T08:43:19.371Z,98150.39
2018-11-29T08:45:47.878Z,98149.16
2018-11-29T08:48:16.389Z,98138.05
2018-11-29T08:50:44.937Z,98134.35
2018-11-29T08:53:13.501Z,98132.75
2018-11-29T08:55:42.037Z,98120.93
2018-11-29T08:58:10.647Z,98115.95
2018-11-29T09:00:39.160Z,98117.19
2018-11-29T09:03:07.678Z,98108.92
2018-11-29T09:05:36.190Z,98113.90
2018-11-29T09:08:04.763Z,98109.15
2018-11-29T09:10:33.281Z,98102.45
2018-11-29T09:13:01.821Z,98094.71
2018-11-29T09:15:30.317Z,98091.23
2018-11-29T09:17:58.862Z,98104.13
2018-11-29T09:20:27.401Z,98100.80
2018-11-29T09:22:55.931Z,98101.50
2018-11-29T09:25:24.470Z,98105.91
2018-11-29T09:27:52.989Z,98106.84
2018-11-29T09:30:22.272Z,98105.59
2018-11-29T09:32:52.730Z,98094.89
2018-11-29T09:35:21.226Z,98086.64
2018-11-29T09:37:53.138Z,98083.33
2018-11-29T09:40:21.731Z,98081.22
2018-11-29T09:42:50.296Z,98076.64
2018-11-29T09:45:20.627Z,98067.49
2018-11-29T09:47:50.325Z,98059.73
2018-11-29T09:50:18.985Z,98056.80
2018-11-29T09:52:47.499Z,98065.83
2018-11-29T09:55:16.870Z,98061.95
2018-11-29T09:57:45.906Z,98062.69
2018-11-29T10:00:27.803Z,98055.78
2018-11-29T10:02:56.804Z,98063.22
2018-11-29T10:05:25.321Z,98048.16
2018-11-29T10:07:53.943Z,98036.08
2018-11-29T10:10:22.565Z,98027.37
2018-11-29T10:12:51.098Z,98022.20
2018-11-29T10:15:19.622Z,98034.59
2018-11-29T10:17:48.142Z,98033.99
2018-11-29T10:20:16.670Z,98040.86
2018-11-29T10:22:45.246Z,98040.81
2018-11-29T10:25:14.668Z,98042.16
2018-11-29T10:27:44.789Z,98049.70
2018-11-29T10:30:21.148Z,98039.38
2018-11-29T10:32:49.661Z,98035.44
2018-11-29T10:35:18.176Z,98022.45
2018-11-29T10:37:46.684Z,98017.23
2018-11-29T10:40:15.173Z,98019.97
2018-11-29T10:42:43.668Z,98017.41
2018-11-29T10:45:15.308Z,98013.34
2018-11-29T10:47:51.951Z,98006.95
2018-11-29T10:50:14.517Z,98005.80
2018-11-29T10:52:43.039Z,97994.53
2018-11-29T10:55:15.737Z,97989.81
2018-11-29T10:57:44.319Z,97986.39
2018-11-29T11:00:32.910Z,97983.97
2018-11-29T11:03:08.283Z,97983.86
2018-11-29T11:05:37.273Z,97985.90
2018-11-29T11:08:08.510Z,97975.45
2018-11-29T11:10:35.743Z,97977.94
2018-11-29T11:13:04.273Z,97972.62
2018-11-29T11:15:32.779Z,97961.69
2018-11-29T11:18:01.290Z,97946.94
2018-11-29T11:20:29.850Z,97946.14
2018-11-29T11:22:58.341Z,97940.17
2018-11-29T11:25:26.836Z,97935.09
2018-11-29T11:27:55.329Z,97933.91
2018-11-29T11:30:23.862Z,97935.42
2018-11-29T11:32:52.941Z,97939.19
2018-11-29T11:35:21.448Z,97944.55
2018-11-29T11:37:49.937Z,97945.09
2018-11-29T11:40:18.490Z,97937.02
2018-11-29T11:42:47.470Z,97939.41
2018-11-29T11:45:17.116Z,97926.27
2018-11-29T11:47:45.642Z,97924.09
2018-11-29T11:50:18.094Z,97919.23
2018-11-29T11:52:46.606Z,97913.30
2018-11-29T11:55:18.928Z,97901.33
2018-11-29T11:57:44.246Z,97898.69
2018-11-29T12:00:20.842Z,97889.87
2018-11-29T12:02:50.837Z,97889.69
2018-11-29T12:05:19.340Z,97880.25
2018-11-29T12:07:47.875Z,97873.27
2018-11-29T12:10:16.706Z,97873.61
2018-11-29T12:12:45.193Z,97870.27
2018-11-29T12:15:14.791Z,97859.24
2018-11-29T12:17:45.294Z,97868.41
2018-11-29T12:20:16.676Z,97869.48
2018-11-29T12:22:45.173Z,97865.94
2018-11-29T12:25:15.469Z,97862.33
2018-11-29T12:27:43.977Z,97870.09
2018-11-29T12:30:31.793Z,97871.07
2018-11-29T12:33:03.463Z,97873.53
2018-11-29T12:35:32.174Z,97873.41
2018-11-29T12:38:00.766Z,97878.43
2018-11-29T12:40:29.274Z,97883.56
2018-11-29T12:42:57.783Z,97881.81
2018-11-29T12:45:26.283Z,97884.13
2018-11-29T12:47:54.872Z,97878.73
2018-11-29T12:50:24.629Z,97875.52
2018-11-29T12:52:53.195Z,97861.38
2018-11-29T12:55:22.754Z,97855.08
2018-11-29T12:58:04.581Z,97855.78
2018-11-29T13:00:20.986Z,97857.60
2018-11-29T13:02:51.488Z,97845.92
2018-11-29T13:05:20.003Z,97845.61
2018-11-29T13:07:48.523Z,97836.75
2018-11-29T13:10:19.949Z,97837.77
2018-11-29T13:12:48.530Z,97831.41
2018-11-29T13:15:19.301Z,97823.48
2018-11-29T13:17:47.851Z,97820.68
2018-11-29T13:20:17.374Z,97820.91
2018-11-29T13:22:45.918Z,97823.47
2018-11-29T13:25:15.672Z,97826.25
2018-11-29T13:27:44.210Z,97823.09
2018-11-29T13:30:15.019Z,97812.85
2018-11-29T13:32:43.528Z,97805.59
2018-11-29T13:35:16.151Z,97807.45
2018-11-29T13:37:46.472Z,97807.67
2018-11-29T13:40:14.979Z,97808.18
2018-11-29T13:42:43.462Z,97801.66
2018-11-29T13:45:12.170Z,97800.67
2018-11-29T13:47:41.429Z,97800.55
2018-11-29T13:50:12.288Z,97801.31
2018-11-29T13:52:40.792Z,97798.00
2018-11-29T13:55:10.443Z,97799.94
2018-11-29T13:57:38.959Z,97797.30
2018-11-29T14:00:17.955Z,97791.93
2018-11-29T14:02:47.660Z,97783.84
2018-11-29T14:05:16.183Z,97777.70
2018-11-29T14:07:44.672Z,97778.30
2018-11-29T14:10:19.147Z,97774.33
2018-11-29T14:12:48.663Z,97776.48
2018-11-29T14:15:19.014Z,97791.17
2018-11-29T14:17:47.506Z,97788.02
2018-11-29T14:20:16.062Z,97782.39
2018-11-29T14:22:44.555Z,97781.91
2018-11-29T14:25:14.130Z,97775.22
2018-11-29T14:27:43.725Z,97776.89
2018-11-29T14:30:21.235Z,97781.69
2018-11-29T14:32:49.830Z,97787.58
2018-11-29T14:35:18.328Z,97795.25
2018-11-29T14:37:46.821Z,97795.09
2018-11-29T14:40:18.105Z,97785.03
2018-11-29T14:42:46.610Z,97784.70
2018-11-29T14:45:16.202Z,97782.63
2018-11-29T14:47:44.709Z,97777.88
2018-11-29T14:50:38.177Z,97775.62
2018-11-29T14:53:07.876Z,97771.92
2018-11-29T14:55:37.088Z,97759.20
2018-11-29T14:58:06.262Z,97775.33
2018-11-29T15:00:35.061Z,97779.26
2018-11-29T15:03:06.385Z,97781.57
2018-11-29T15:05:34.906Z,97782.83
2018-11-29T15:08:03.397Z,97777.89
2018-11-29T15:10:31.896Z,97781.66
2018-11-29T15:13:00.380Z,97779.94
2018-11-29T15:15:28.882Z,97780.50
2018-11-29T15:17:57.383Z,97789.90
2018-11-29T15:20:33.457Z,97785.85
2018-11-29T15:23:01.952Z,97787.66
2018-11-29T15:25:30.452Z,97785.20
2018-11-29T15:27:58.994Z,97794.27
2018-11-29T15:30:27.479Z,97793.92
2018-11-29T15:32:55.974Z,97787.92
2018-11-29T15:35:24.494Z,97789.03
2018-11-29T15:37:53.018Z,97789.04
2018-11-29T15:40:21.526Z,97787.80
2018-11-29T15:42:50.025Z,97780.38
2018-11-29T15:45:22.740Z,97778.30
2018-11-29T15:47:51.255Z,97776.00
2018-11-29T15:50:19.788Z,97773.58
2018-11-29T15:52:48.304Z,97770.77
2018-11-29T15:55:20.000Z,97769.36
2018-11-29T15:57:49.263Z,97763.86
2018-11-29T16:00:19.939Z,97770.94
2018-11-29T16:02:48.977Z,97774.86
2018-11-29T16:05:18.260Z,97773.63
2018-11-29T16:07:47.005Z,97771.72
2018-11-29T16:10:16.925Z,97773.30
2018-11-29T16:12:45.528Z,97772.78
2018-11-29T16:15:18.071Z,97777.55
2018-11-29T16:17:47.526Z,97780.03
2018-11-29T16:20:26.949Z,97773.67
2018-11-29T16:22:55.675Z,97775.47
2018-11-29T16:25:24.644Z,97786.39
2018-11-29T16:27:53.512Z,97790.64
2018-11-29T16:30:30.456Z,97789.41
2018-11-29T16:33:01.116Z,97788.86
2018-11-29T16:35:29.743Z,97779.52
2018-11-29T16:37:58.423Z,97783.98
2018-11-29T16:40:27.094Z,97782.03
2018-11-29T16:42:55.694Z,97781.34
2018-11-29T16:45:24.366Z,97786.29
2018-11-29T16:47:53.074Z,97780.66
2018-11-29T16:50:21.616Z,97775.55
2018-11-29T16:52:50.134Z,97769.36
2018-11-29T16:55:18.628Z,97772.90
2018-11-29T16:57:49.889Z,97770.63
2018-11-29T17:00:20.331Z,97771.87
2018-11-29T17:02:48.898Z,97767.98
2018-11-29T17:05:17.409Z,97765.86
2018-11-29T17:07:45.912Z,97767.47
2018-11-29T17:10:16.590Z,97765.69
2018-11-29T17:12:46.702Z,97758.10
2018-11-29T17:15:16.506Z,97764.28
2018-11-29T17:17:44.994Z,97765.86
2018-11-29T17:20:15.386Z,97766.72
2018-11-29T17:22:44.350Z,97765.14
2018-11-29T17:25:13.493Z,97769.05
2018-11-29T17:27:42.015Z,97769.73
2018-11-29T17:30:14.944Z,97766.41
2018-11-29T17:32:43.760Z,97770.08
2018-11-29T17:35:12.386Z,97777.16
2018-11-29T17:37:40.872Z,97777.30
2018-11-29T17:40:13.614Z,97768.64
2018-11-29T17:42:42.136Z,97765.86
2018-11-29T17:45:13.758Z,97752.98
2018-11-29T17:47:43.138Z,97746.81
2018-11-29T17:50:30.778Z,97748.59
2018-11-29T17:52:59.277Z,97744.02
2018-11-29T17:55:27.832Z,97748.62
2018-11-29T17:57:56.342Z,97739.25
2018-11-29T18:00:26.275Z,97728.52
2018-11-29T18:02:54.814Z,97724.11
2018-11-29T18:05:23.309Z,97724.45
2018-11-29T18:07:51.797Z,97723.91
2018-11-29T18:10:26.126Z,97721.09
2018-11-29T18:13:01.283Z,97713.34
2018-11-29T18:15:32.385Z,97718.66
2018-11-29T18:18:00.923Z,97721.30
2018-11-29T18:20:29.454Z,97716.19
2018-11-29T18:22:57.968Z,97686.91
2018-11-29T18:25:26.509Z,97706.13
2018-11-29T18:27:55.020Z,97707.20
2018-11-29T18:30:23.757Z,97706.30
2018-11-29T18:32:52.288Z,97706.30
2018-11-29T18:35:20.796Z,97711.93
2018-11-29T18:37:50.128Z,97720.41
2018-11-29T18:40:21.720Z,97721.81
2018-11-29T18:43:00.249Z,97721.47
2018-11-29T18:45:28.881Z,97717.56
2018-11-29T18:47:57.465Z,97711.05
2018-11-29T18:50:26.748Z,97708.05
2018-11-29T18:52:55.305Z,97701.16
2018-11-29T18:55:24.978Z,97691.66
2018-11-29T18:57:54.113Z,97676.83
2018-11-29T19:00:25.676Z,97674.19
2018-11-29T19:02:56.910Z,97675.22
2018-11-29T19:05:22.836Z,97665.17
2018-11-29T19:07:51.375Z,97670.66
2018-11-29T19:10:20.159Z,97674.36
2018-11-29T19:12:59.987Z,97679.64
2018-11-29T19:15:28.493Z,97678.75
2018-11-29T19:17:56.996Z,97695.33
2018-11-29T19:20:26.346Z,97695.67
2018-11-29T19:22:54.888Z,97690.56
2018-11-29T19:25:23.365Z,97694.27
2018-11-29T19:27:51.864Z,97693.92
2018-11-29T19:30:21.679Z,97696.91
2018-11-29T19:32:53.231Z,97693.55
2018-11-29T19:35:22.793Z,97691.07
2018-11-29T19:37:51.378Z,97697.59
2018-11-29T19:40:19.905Z,97705.52
2018-11-29T19:42:48.445Z,97701.47
2018-11-29T19:45:17.091Z,97709.61
2018-11-29T19:47:45.622Z,97711.02
2018-11-29T19:50:17.156Z,97714.89
2018-11-29T19:52:47.029Z,97720.52
2018-11-29T19:55:18.246Z,97728.78
2018-11-29T19:57:46.793Z,97727.55
2018-11-29T20:00:15.308Z,97731.64
2018-11-29T20:02:44.909Z,97721.20
2018-11-29T20:05:13.719Z,97722.06
2018-11-29T20:07:42.241Z,97721.37
2018-11-29T20:10:13.330Z,97721.20
2018-11-29T20:12:41.748Z,97722.61
2018-11-29T20:15:13.662Z,97718.56
2018-11-29T20:17:42.194Z,97701.98
2018-11-29T20:20:11.725Z,97694.73
2018-11-29T20:22:40.506Z,97697.42
2018-11-29T20:25:17.186Z,97698.62
2018-11-29T20:27:46.130Z,97699.51
2018-11-29T20:30:19.641Z,97695.29
2018-11-29T20:32:49.209Z,97683.83
2018-11-29T20:35:18.342Z,97667.59
2018-11-29T20:37:47.294Z,97669.34
2018-11-29T20:40:17.819Z,97678.20
2018-11-29T20:42:47.317Z,97665.47
2018-11-29T20:45:25.260Z,97660.36
2018-11-29T20:47:53.760Z,97681.53
2018-11-29T20:50:23.624Z,97679.41
2018-11-29T20:52:53.435Z,97678.17
2018-11-29T20:55:26.297Z,97681.70
2018-11-29T20:57:54.860Z,97692.14
2018-11-29T21:00:23.369Z,97691.58
2018-11-29T21:02:51.881Z,97692.82
2018-11-29T21:05:21.586Z,97691.76
2018-11-29T21:07:51.548Z,97696.53
2018-11-29T21:10:22.278Z,97697.04
2018-11-29T21:12:50.774Z,97692.99
2018-11-29T21:15:19.351Z,97692.99
2018-11-29T21:17:47.906Z,97692.27
2018-11-29T21:20:17.570Z,97686.44
2018-11-29T21:22:47.242Z,97670.75
2018-11-29T21:25:23.083Z,97660.36
2018-11-29T21:27:51.652Z,97667.77
2018-11-29T21:30:20.158Z,97646.05
2018-11-29T21:32:49.197Z,97616.61
2018-11-29T21:35:19.938Z,97618.19
2018-11-29T21:37:48.506Z,97620.66
2018-11-29T21:40:23.451Z,97627.39
2018-11-29T21:42:51.966Z,97630.58
2018-11-29T21:45:20.518Z,97629.90
2018-11-29T21:47:49.017Z,97647.36
2018-11-29T21:50:17.513Z,97641.53
2018-11-29T21:52:46.032Z,97630.58
2018-11-29T21:55:14.570Z,97629.52
2018-11-29T21:57:43.064Z,97627.39
2018-11-29T22:00:13.801Z,97624.58
2018-11-29T22:02:44.208Z,97633.56
2018-11-29T22:05:12.700Z,97635.14
2018-11-29T22:07:41.221Z,97628.97
2018-11-29T22:10:09.719Z,97636.72
2018-11-29T22:12:38.245Z,97628.62
2018-11-29T22:15:08.946Z,97618.02
2018-11-29T22:17:41.493Z,97617.33
2018-11-29T22:20:10.009Z,97618.36
2018-11-29T22:22:38.513Z,97607.80
2018-11-29T22:25:07.666Z,97609.92
2018-11-29T22:27:36.189Z,97600.39
2018-11-29T22:30:05.394Z,97609.97
2018-11-29T22:32:33.911Z,97608.73
2018-11-29T22:35:02.426Z,97609.25
2018-11-29T22:37:30.922Z,97612.61
2018-11-29T22:39:59.427Z,97606.61
2018-11-29T22:42:27.964Z,97602.77
2018-11-29T22:44:56.478Z,97614.40
2018-11-29T22:47:24.994Z,97610.52
2018-11-29T22:49:53.499Z,97613.00
2018-11-29T22:52:22.006Z,97614.44
2018-11-29T22:54:50.513Z,97623.77
2018-11-29T22:57:19.029Z,97629.77
2018-11-29T22:59:47.553Z,97629.73
2018-11-29T23:02:16.119Z,97624.63
2018-11-29T23:04:44.763Z,97622.53
2018-11-29T23:07:13.300Z,97625.17
2018-11-29T23:09:41.817Z,97622.16
2018-11-29T23:12:10.315Z,97615.46
2018-11-29T23:14:38.817Z,97614.91
2018-11-29T23:17:07.327Z,97622.15
2018-11-29T23:19:35.863Z,97620.19
2018-11-29T23:22:04.423Z,97626.88
2018-11-29T23:24:32.915Z,97622.11
2018-11-29T23:27:01.449Z,97623.34
2018-11-29T23:29:29.944Z,97620.48
2018-11-29T23:31:58.460Z,97621.93
2018-11-29T23:34:26.969Z,97622.28
2018-11-29T23:36:55.492Z,97629.52
2018-11-29T23:39:24.019Z,97624.79
2018-11-29T23:41:52.549Z,97630.41
2018-11-29T23:44:21.129Z,97618.27
2018-11-29T23:46:49.637Z,97628.11
2018-11-29T23:49:18.136Z,97625.69
2018-11-29T23:51:46.667Z,97621.81
2018-11-29T23:54:15.202Z,97619.00
2018-11-29T23:56:43.768Z,97625.17
2018-11-29T23:59:12.294Z,97611.80
